Boracay Island — 3ERW5 — position and weather

sailwx.info

Track history (hours):
 
Tides and Currents Weather Stations Pressure Air Temp Water Temp Dewpoint Dewpoint Depression Visibility Wind Speed Wind Dir Waves Ship Positions

Boracay Island

Last reported at 2018-Jun-10 21:06 UTC. Time now 2018-Jun-19 02:35 UTC.
Position N 46°53' W 124°55'.
Warning: this ship's position is 8 days out of date.

Length 180 m; draft 9.6 m.

Type: Cargo ship. MMSI: 374590000.

Date/timePositionNaut miles runAvg speedWind from/ knotsBaromVisibWave heightAir tempDewpointWater temp
2018-Jun-10 21:06N 46°53' W 124°55'110.5
2018-Jun-10 21:00N 46°53' W 124°53'510.2
2018-Jun-10 20:30N 46°53' W 124°46'510.1
2018-Jun-10 20:00N 46°53' W 124°39'510.0
2018-Jun-10 19:30N 46°53' W 124°31'510.5
2018-Jun-10 19:00N 46°53' W 124°24'510.6
2018-Jun-10 18:30N 46°53' W 124°16'3 6.0
2018-Jun-10 18:00N 46°54' W 124°12'  
2018-Jun-06 20:32N 46°56' W 124°00'0 9.7
2018-Jun-06 20:30N 46°56' W 124°01'511.2
2018-Jun-06 20:01N 46°55' W 124°08'6 8.1
2018-Jun-06 19:17N 46°53' W 124°17'1 3.0
2018-Jun-06 19:00N 46°52' W 124°17'2 3.4
2018-Jun-06 18:30N 46°51' W 124°20'2 4.2
2018-Jun-06 18:01N 46°49' W 124°21'3 6.0
2018-Jun-06 17:31N 46°47' W 124°23'3 6.4
2018-Jun-06 17:00N 46°44' W 124°26'3 6.4
2018-Jun-06 16:30N 46°42' W 124°29'3 6.3
2018-Jun-06 16:00N 46°39' W 124°32'3 6.6
2018-Jun-06 15:30N 46°37' W 124°35'5 9.2
2018-Jun-06 15:00N 46°34' W 124°40'5 9.2
2018-Jun-06 14:30N 46°30' W 124°44'3 6.6
2018-Jun-06 14:01N 46°28' W 124°48'914.2
2018-Jun-06 13:24N 46°22' W 124°56'614.3
2018-Jun-06 13:00N 46°17' W 125°02'714.4
2018-Jun-06 12:31N 46°12' W 125°09'714.5
2018-Jun-06 12:00N 46°07' W 125°16'714.6
2018-Jun-06 11:30N 46°01' W 125°23'913.8
2018-Jun-06 10:51N 45°53' W 125°25'514.1
2018-Jun-06 10:30N 45°48' W 125°26'814.0
2018-Jun-06 09:57N 45°40' W 125°26'914.1
2018-Jun-06 09:20N 45°31' W 125°26'514.0
2018-Jun-06 08:59N 45°26' W 125°26'714.0
2018-Jun-06 08:27N 45°19' W 125°26'614.3
2018-Jun-06 08:00N 45°12' W 125°26'40512.9
2018-Jun-05 00:41N 38°30' W 124°27'512.5
2018-Jun-05 00:19N 38°26' W 124°25'712.6
2018-Jun-04 23:47N 38°20' W 124°22'312.8
2018-Jun-04 23:30N 38°16' W 124°20'612.9
2018-Jun-04 23:00N 38°10' W 124°18'1312.7
2018-Jun-04 21:59N 37°58' W 124°14'16611.5
2018-Jun-04 07:34N 35°21' W 123°04'212.3
2018-Jun-04 07:26N 35°20' W 123°03'1812.1
2018-Jun-04 05:57N 35°04' W 122°52'1911.7
2018-Jun-04 04:19N 34°53' W 122°33'412.8
2018-Jun-04 04:00N 34°52' W 122°28'612.5
2018-Jun-04 03:30N 34°50' W 122°21'612.7
2018-Jun-04 02:59N 34°48' W 122°13'612.9
2018-Jun-04 02:30N 34°46' W 122°06'713.1
2018-Jun-04 02:00N 34°43' W 121°59'713.1
2018-Jun-04 01:29N 34°41' W 121°51'612.7
2018-Jun-04 01:00N 34°39' W 121°44'713.0
2018-Jun-04 00:30N 34°37' W 121°36'713.4
2018-Jun-04 00:00N 34°35' W 121°28'713.6
2018-Jun-03 23:30N 34°33' W 121°21'714.0
2018-Jun-03 23:00N 34°31' W 121°13'713.7
2018-Jun-03 22:29N 34°29' W 121°04'713.5
2018-Jun-03 21:59N 34°27' W 120°56'613.3
2018-Jun-03 21:31N 34°25' W 120°49'713.6
2018-Jun-03 21:00N 34°24' W 120°41'713.9
2018-Jun-03 20:30N 34°22' W 120°33'714.2
2018-Jun-03 20:00N 34°20' W 120°25'814.6
2018-Jun-03 19:28N 34°18' W 120°15'714.5
2018-Jun-03 19:00N 34°16' W 120°08'814.5
2018-Jun-03 18:28N 34°14' W 119°58'714.1
2018-Jun-03 18:00N 34°12' W 119°51'714.7
2018-Jun-03 17:30N 34°10' W 119°42'714.6
2018-Jun-03 17:00N 34°09' W 119°34'714.5
2018-Jun-03 16:30N 34°07' W 119°25'714.2
2018-Jun-03 15:59N 34°05' W 119°17'714.2
2018-Jun-03 15:30N 34°02' W 119°09'714.3
2018-Jun-03 15:00N 33°58' W 119°02'711.6
2018-Jun-03 14:26N 33°55' W 118°55'511.7
2018-Jun-03 14:00N 33°52' W 118°50'611.7
2018-Jun-03 13:27N 33°49' W 118°43'611.8
2018-Jun-03 12:55N 33°46' W 118°37'511.9
2018-Jun-03 12:30N 33°43' W 118°32'611.8
2018-Jun-03 12:00N 33°40' W 118°25'611.2
2018-Jun-03 11:30N 33°38' W 118°19'611.2
2018-Jun-03 11:00N 33°39' W 118°12'5 9.4
2018-Jun-03 10:30N 33°44' W 118°11'1 2.9
2018-Jun-03 10:00N 33°45' W 118°12'0 0.0
2018-Jun-03 09:30N 33°45' W 118°12'0 0.0
2018-Jun-03 09:00N 33°45' W 118°12'0 0.0
2018-Jun-03 08:30N 33°45' W 118°12'0 0.0
2018-Jun-03 08:00N 33°45' W 118°12'0 0.0
2018-Jun-03 07:30N 33°45' W 118°12'0 0.0
2018-Jun-03 07:00N 33°45' W 118°12'0 0.0
2018-Jun-03 06:30N 33°45' W 118°12'0 0.0
2018-Jun-03 06:00N 33°45' W 118°12'0 0.0
2018-Jun-03 05:30N 33°45' W 118°12'0 0.0
2018-Jun-03 05:00N 33°45' W 118°12'0 0.0
2018-Jun-03 04:30N 33°45' W 118°12'0 0.0
2018-Jun-03 04:00N 33°45' W 118°12'0 0.0
2018-Jun-03 03:30N 33°45' W 118°12'0 0.0
2018-Jun-03 03:00N 33°45' W 118°12'0 0.0
2018-Jun-03 02:30N 33°45' W 118°12'0 0.0
2018-Jun-03 02:00N 33°45' W 118°12'0 0.0
2018-Jun-03 01:30N 33°45' W 118°12'0 0.0
2018-Jun-03 01:00N 33°45' W 118°12'0 0.0
2018-Jun-03 00:30N 33°45' W 118°12'0 0.0
2018-Jun-03 00:00N 33°45' W 118°12'0 0.0
2018-Jun-02 23:30N 33°45' W 118°12'0 0.0
2018-Jun-02 23:00N 33°45' W 118°12'0 0.0
2018-Jun-02 22:30N 33°45' W 118°12'0 0.0
2018-Jun-02 22:00N 33°45' W 118°12'0 0.0
2018-Jun-02 21:30N 33°45' W 118°12'0 0.0
2018-Jun-02 21:00N 33°45' W 118°12'0 0.0
2018-Jun-02 20:30N 33°45' W 118°12'0 0.0
2018-Jun-02 20:00N 33°45' W 118°12'0 0.0
2018-Jun-02 19:30N 33°45' W 118°12'0 0.0
2018-Jun-02 19:00N 33°45' W 118°12'0 0.0
2018-Jun-02 18:27N 33°45' W 118°12'0 0.0
2018-Jun-02 18:00N 33°45' W 118°12'0 0.0
2018-Jun-02 17:30N 33°45' W 118°12'0 0.0
2018-Jun-02 16:54N 33°45' W 118°12'0 0.0
2018-Jun-02 16:30N 33°45' W 118°12'0 0.0
2018-Jun-02 16:00N 33°45' W 118°12'0 0.0
2018-Jun-02 15:30N 33°45' W 118°12'0 0.0
2018-Jun-02 15:00N 33°45' W 118°12'0 0.0
2018-Jun-02 14:30N 33°45' W 118°12'0 0.0
2018-Jun-02 14:00N 33°45' W 118°12'0 0.0
2018-Jun-02 13:30N 33°45' W 118°12'0 0.0
2018-Jun-02 13:00N 33°45' W 118°12'0 0.0
2018-Jun-02 12:30N 33°45' W 118°12'0 0.0
2018-Jun-02 12:00N 33°45' W 118°12'0 0.0
2018-Jun-02 11:30N 33°45' W 118°12'0 0.0
2018-Jun-02 11:00N 33°45' W 118°12'0 0.0
2018-Jun-02 10:30N 33°45' W 118°12'0 0.0
2018-Jun-02 10:00N 33°45' W 118°12'0 0.0
2018-Jun-02 09:27N 33°45' W 118°12'0 0.0
2018-Jun-02 09:00N 33°45' W 118°12'0 0.0
2018-Jun-02 08:30N 33°45' W 118°12'0 0.0
2018-Jun-02 08:00N 33°45' W 118°12'0 0.0
2018-Jun-02 07:30N 33°45' W 118°12'0 0.0
2018-Jun-02 07:00N 33°45' W 118°12'0 0.0
2018-Jun-02 06:30N 33°45' W 118°12'0 0.0
2018-Jun-02 06:00N 33°45' W 118°12'0 0.0
2018-Jun-02 05:30N 33°45' W 118°12'0 0.0
2018-Jun-02 05:00N 33°45' W 118°12'0 0.0
2018-Jun-02 04:30N 33°45' W 118°12'0 0.0
2018-Jun-02 04:00N 33°45' W 118°12'0 0.0
2018-Jun-02 03:30N 33°45' W 118°12'0 0.0
2018-Jun-02 02:57N 33°45' W 118°12'0 0.0
2018-Jun-02 02:30N 33°45' W 118°12'0 0.0
2018-Jun-02 02:00N 33°45' W 118°12'0 0.0
2018-Jun-02 01:30N 33°45' W 118°12'0 0.0
2018-Jun-02 01:00N 33°45' W 118°12'0 0.0
2018-Jun-02 00:30N 33°45' W 118°12'0 0.0
2018-Jun-02 00:00N 33°45' W 118°12'0 0.0
2018-Jun-01 23:30N 33°45' W 118°12'0 0.0
2018-Jun-01 23:00N 33°45' W 118°12'0 0.0
2018-Jun-01 22:30N 33°45' W 118°12'0 0.0
2018-Jun-01 22:00N 33°45' W 118°12'0 0.0
2018-Jun-01 21:30N 33°45' W 118°12'0 0.0
2018-Jun-01 21:00N 33°45' W 118°12'0 0.0
2018-Jun-01 20:30N 33°45' W 118°12'0 0.0
2018-Jun-01 20:00N 33°45' W 118°12'0 0.0
2018-Jun-01 19:30N 33°45' W 118°12'0 0.0
2018-Jun-01 19:00N 33°45' W 118°12'0 0.0
2018-Jun-01 18:30N 33°45' W 118°12'0 0.0
2018-Jun-01 18:00N 33°45' W 118°12'0 0.0
2018-Jun-01 17:30N 33°45' W 118°12'0 0.0
2018-Jun-01 17:00N 33°45' W 118°12'0 0.0
2018-Jun-01 16:30N 33°45' W 118°12'0 0.0
2018-Jun-01 16:00N 33°45' W 118°12'0 0.0
2018-Jun-01 15:30N 33°45' W 118°12'0 0.0
2018-Jun-01 15:00N 33°45' W 118°12'0 0.0
2018-Jun-01 14:30N 33°45' W 118°12'0 0.0
2018-Jun-01 14:00N 33°45' W 118°12'0 0.0
2018-Jun-01 13:30N 33°45' W 118°12'0 0.0
2018-Jun-01 12:57N 33°45' W 118°12'0 0.0
2018-Jun-01 12:30N 33°45' W 118°12'0 0.0
2018-Jun-01 12:00N 33°45' W 118°12'0 0.0
2018-Jun-01 11:30N 33°45' W 118°12'0 0.0
2018-Jun-01 11:00N 33°45' W 118°12'0 0.0
2018-Jun-01 10:30N 33°45' W 118°12'0 0.0
2018-Jun-01 10:00N 33°45' W 118°12'0 0.0
2018-Jun-01 09:30N 33°45' W 118°12'0 0.0
2018-Jun-01 09:00N 33°45' W 118°12'0 0.0
2018-Jun-01 08:30N 33°45' W 118°12'0 0.0
2018-Jun-01 08:00N 33°45' W 118°12'0 0.0
2018-Jun-01 07:30N 33°45' W 118°12'0 0.0
2018-Jun-01 07:00N 33°45' W 118°12'0 0.0
2018-Jun-01 06:30N 33°45' W 118°12'1 1.1
2018-Jun-01 06:00N 33°44' W 118°12'4 7.4
2018-Jun-01 05:29N 33°41' W 118°11'5 8.9
2018-Jun-01 04:58N 33°36' W 118°13'4 8.6
2018-Jun-01 04:30N 33°36' W 118°18'810.0
2018-Jun-01 03:42N 33°39' W 118°27'510.1
2018-Jun-01 03:10N 33°42' W 118°33'4 9.7
2018-Jun-01 02:47N 33°44' W 118°37'3 9.9
2018-Jun-01 02:26N 33°45' W 118°40'4 8.1
2018-Jun-01 02:00N 33°47' W 118°44'4 6.9
2018-Jun-01 01:24N 33°49' W 118°48'3 7.1
2018-Jun-01 00:57N 33°51' W 118°51'5 9.3
2018-Jun-01 00:27N 33°53' W 118°56'910.4
2018-May-31 23:35N 33°57' W 119°06'111.9
2018-May-31 23:30N 33°58' W 119°07'612.6
2018-May-31 23:00N 34°01' W 119°13'814.6
2018-May-31 22:28N 34°04' W 119°22'1115.1
2018-May-31 21:44N 34°07' W 119°35'415.0
2018-May-31 21:30N 34°08' W 119°39'  
Track history (hours):
 
Tides and Currents Weather Stations Pressure Air Temp Water Temp Dewpoint Dewpoint Depression Visibility Wind Speed Wind Dir Waves Ship Positions

Boracay Island

Last reported at 2018-Jun-10 21:06 UTC. Time now 2018-Jun-19 02:35 UTC.
Position N 46°53' W 124°55'.
Warning: this ship's position is 8 days out of date.

Length 180 m; draft 9.6 m.

Type: Cargo ship. MMSI: 374590000.

Date/timePositionNaut miles runAvg speedWind from/ knotsBaromVisibWave heightAir tempDewpointWater temp
2018-Jun-10 21:06N 46°53' W 124°55'110.5
2018-Jun-10 21:00N 46°53' W 124°53'510.2
2018-Jun-10 20:30N 46°53' W 124°46'510.1
2018-Jun-10 20:00N 46°53' W 124°39'510.0
2018-Jun-10 19:30N 46°53' W 124°31'510.5
2018-Jun-10 19:00N 46°53' W 124°24'510.6
2018-Jun-10 18:30N 46°53' W 124°16'3 6.0
2018-Jun-10 18:00N 46°54' W 124°12'  
2018-Jun-06 20:32N 46°56' W 124°00'0 9.7
2018-Jun-06 20:30N 46°56' W 124°01'511.2
2018-Jun-06 20:01N 46°55' W 124°08'6 8.1
2018-Jun-06 19:17N 46°53' W 124°17'1 3.0
2018-Jun-06 19:00N 46°52' W 124°17'2 3.4
2018-Jun-06 18:30N 46°51' W 124°20'2 4.2
2018-Jun-06 18:01N 46°49' W 124°21'3 6.0
2018-Jun-06 17:31N 46°47' W 124°23'3 6.4
2018-Jun-06 17:00N 46°44' W 124°26'3 6.4
2018-Jun-06 16:30N 46°42' W 124°29'3 6.3
2018-Jun-06 16:00N 46°39' W 124°32'3 6.6
2018-Jun-06 15:30N 46°37' W 124°35'5 9.2
2018-Jun-06 15:00N 46°34' W 124°40'5 9.2
2018-Jun-06 14:30N 46°30' W 124°44'3 6.6
2018-Jun-06 14:01N 46°28' W 124°48'914.2
2018-Jun-06 13:24N 46°22' W 124°56'614.3
2018-Jun-06 13:00N 46°17' W 125°02'714.4
2018-Jun-06 12:31N 46°12' W 125°09'714.5
2018-Jun-06 12:00N 46°07' W 125°16'714.6
2018-Jun-06 11:30N 46°01' W 125°23'913.8
2018-Jun-06 10:51N 45°53' W 125°25'514.1
2018-Jun-06 10:30N 45°48' W 125°26'814.0
2018-Jun-06 09:57N 45°40' W 125°26'914.1
2018-Jun-06 09:20N 45°31' W 125°26'514.0
2018-Jun-06 08:59N 45°26' W 125°26'714.0
2018-Jun-06 08:27N 45°19' W 125°26'614.3
2018-Jun-06 08:00N 45°12' W 125°26'40512.9
2018-Jun-05 00:41N 38°30' W 124°27'512.5
2018-Jun-05 00:19N 38°26' W 124°25'712.6
2018-Jun-04 23:47N 38°20' W 124°22'312.8
2018-Jun-04 23:30N 38°16' W 124°20'612.9
2018-Jun-04 23:00N 38°10' W 124°18'1312.7
2018-Jun-04 21:59N 37°58' W 124°14'16611.5
2018-Jun-04 07:34N 35°21' W 123°04'212.3
2018-Jun-04 07:26N 35°20' W 123°03'1812.1
2018-Jun-04 05:57N 35°04' W 122°52'1911.7
2018-Jun-04 04:19N 34°53' W 122°33'412.8
2018-Jun-04 04:00N 34°52' W 122°28'612.5
2018-Jun-04 03:30N 34°50' W 122°21'612.7
2018-Jun-04 02:59N 34°48' W 122°13'612.9
2018-Jun-04 02:30N 34°46' W 122°06'713.1
2018-Jun-04 02:00N 34°43' W 121°59'713.1
2018-Jun-04 01:29N 34°41' W 121°51'612.7
2018-Jun-04 01:00N 34°39' W 121°44'713.0
2018-Jun-04 00:30N 34°37' W 121°36'713.4
2018-Jun-04 00:00N 34°35' W 121°28'713.6
2018-Jun-03 23:30N 34°33' W 121°21'714.0
2018-Jun-03 23:00N 34°31' W 121°13'713.7
2018-Jun-03 22:29N 34°29' W 121°04'713.5
2018-Jun-03 21:59N 34°27' W 120°56'613.3
2018-Jun-03 21:31N 34°25' W 120°49'713.6
2018-Jun-03 21:00N 34°24' W 120°41'713.9
2018-Jun-03 20:30N 34°22' W 120°33'714.2
2018-Jun-03 20:00N 34°20' W 120°25'814.6
2018-Jun-03 19:28N 34°18' W 120°15'714.5
2018-Jun-03 19:00N 34°16' W 120°08'814.5
2018-Jun-03 18:28N 34°14' W 119°58'714.1
2018-Jun-03 18:00N 34°12' W 119°51'714.7
2018-Jun-03 17:30N 34°10' W 119°42'714.6
2018-Jun-03 17:00N 34°09' W 119°34'714.5
2018-Jun-03 16:30N 34°07' W 119°25'714.2
2018-Jun-03 15:59N 34°05' W 119°17'714.2
2018-Jun-03 15:30N 34°02' W 119°09'714.3
2018-Jun-03 15:00N 33°58' W 119°02'711.6
2018-Jun-03 14:26N 33°55' W 118°55'511.7
2018-Jun-03 14:00N 33°52' W 118°50'611.7
2018-Jun-03 13:27N 33°49' W 118°43'611.8
2018-Jun-03 12:55N 33°46' W 118°37'511.9
2018-Jun-03 12:30N 33°43' W 118°32'611.8
2018-Jun-03 12:00N 33°40' W 118°25'611.2
2018-Jun-03 11:30N 33°38' W 118°19'611.2
2018-Jun-03 11:00N 33°39' W 118°12'5 9.4
2018-Jun-03 10:30N 33°44' W 118°11'1 2.9
2018-Jun-03 10:00N 33°45' W 118°12'0 0.0
2018-Jun-03 09:30N 33°45' W 118°12'0 0.0
2018-Jun-03 09:00N 33°45' W 118°12'0 0.0
2018-Jun-03 08:30N 33°45' W 118°12'0 0.0
2018-Jun-03 08:00N 33°45' W 118°12'0 0.0
2018-Jun-03 07:30N 33°45' W 118°12'0 0.0
2018-Jun-03 07:00N 33°45' W 118°12'0 0.0
2018-Jun-03 06:30N 33°45' W 118°12'0 0.0
2018-Jun-03 06:00N 33°45' W 118°12'0 0.0
2018-Jun-03 05:30N 33°45' W 118°12'0 0.0
2018-Jun-03 05:00N 33°45' W 118°12'0 0.0
2018-Jun-03 04:30N 33°45' W 118°12'0 0.0
2018-Jun-03 04:00N 33°45' W 118°12'0 0.0
2018-Jun-03 03:30N 33°45' W 118°12'0 0.0
2018-Jun-03 03:00N 33°45' W 118°12'0 0.0
2018-Jun-03 02:30N 33°45' W 118°12'0 0.0
2018-Jun-03 02:00N 33°45' W 118°12'0 0.0
2018-Jun-03 01:30N 33°45' W 118°12'0 0.0
2018-Jun-03 01:00N 33°45' W 118°12'0 0.0
2018-Jun-03 00:30N 33°45' W 118°12'0 0.0
2018-Jun-03 00:00N 33°45' W 118°12'0 0.0
2018-Jun-02 23:30N 33°45' W 118°12'0 0.0
2018-Jun-02 23:00N 33°45' W 118°12'0 0.0
2018-Jun-02 22:30N 33°45' W 118°12'0 0.0
2018-Jun-02 22:00N 33°45' W 118°12'0 0.0
2018-Jun-02 21:30N 33°45' W 118°12'0 0.0
2018-Jun-02 21:00N 33°45' W 118°12'0 0.0
2018-Jun-02 20:30N 33°45' W 118°12'0 0.0
2018-Jun-02 20:00N 33°45' W 118°12'0 0.0
2018-Jun-02 19:30N 33°45' W 118°12'0 0.0
2018-Jun-02 19:00N 33°45' W 118°12'0 0.0
2018-Jun-02 18:27N 33°45' W 118°12'0 0.0
2018-Jun-02 18:00N 33°45' W 118°12'0 0.0
2018-Jun-02 17:30N 33°45' W 118°12'0 0.0
2018-Jun-02 16:54N 33°45' W 118°12'0 0.0
2018-Jun-02 16:30N 33°45' W 118°12'0 0.0
2018-Jun-02 16:00N 33°45' W 118°12'0 0.0
2018-Jun-02 15:30N 33°45' W 118°12'0 0.0
2018-Jun-02 15:00N 33°45' W 118°12'0 0.0
2018-Jun-02 14:30N 33°45' W 118°12'0 0.0
2018-Jun-02 14:00N 33°45' W 118°12'0 0.0
2018-Jun-02 13:30N 33°45' W 118°12'0 0.0
2018-Jun-02 13:00N 33°45' W 118°12'0 0.0
2018-Jun-02 12:30N 33°45' W 118°12'0 0.0
2018-Jun-02 12:00N 33°45' W 118°12'0 0.0
2018-Jun-02 11:30N 33°45' W 118°12'0 0.0
2018-Jun-02 11:00N 33°45' W 118°12'0 0.0
2018-Jun-02 10:30N 33°45' W 118°12'0 0.0
2018-Jun-02 10:00N 33°45' W 118°12'0 0.0
2018-Jun-02 09:27N 33°45' W 118°12'0 0.0
2018-Jun-02 09:00N 33°45' W 118°12'0 0.0
2018-Jun-02 08:30N 33°45' W 118°12'0 0.0
2018-Jun-02 08:00N 33°45' W 118°12'0 0.0
2018-Jun-02 07:30N 33°45' W 118°12'0 0.0
2018-Jun-02 07:00N 33°45' W 118°12'0 0.0
2018-Jun-02 06:30N 33°45' W 118°12'0 0.0
2018-Jun-02 06:00N 33°45' W 118°12'0 0.0
2018-Jun-02 05:30N 33°45' W 118°12'0 0.0
2018-Jun-02 05:00N 33°45' W 118°12'0 0.0
2018-Jun-02 04:30N 33°45' W 118°12'0 0.0
2018-Jun-02 04:00N 33°45' W 118°12'0 0.0
2018-Jun-02 03:30N 33°45' W 118°12'0 0.0
2018-Jun-02 02:57N 33°45' W 118°12'0 0.0
2018-Jun-02 02:30N 33°45' W 118°12'0 0.0
2018-Jun-02 02:00N 33°45' W 118°12'0 0.0
2018-Jun-02 01:30N 33°45' W 118°12'0 0.0
2018-Jun-02 01:00N 33°45' W 118°12'0 0.0
2018-Jun-02 00:30N 33°45' W 118°12'0 0.0
2018-Jun-02 00:00N 33°45' W 118°12'0 0.0
2018-Jun-01 23:30N 33°45' W 118°12'0 0.0
2018-Jun-01 23:00N 33°45' W 118°12'0 0.0
2018-Jun-01 22:30N 33°45' W 118°12'0 0.0
2018-Jun-01 22:00N 33°45' W 118°12'0 0.0
2018-Jun-01 21:30N 33°45' W 118°12'0 0.0
2018-Jun-01 21:00N 33°45' W 118°12'0 0.0
2018-Jun-01 20:30N 33°45' W 118°12'0 0.0
2018-Jun-01 20:00N 33°45' W 118°12'0 0.0
2018-Jun-01 19:30N 33°45' W 118°12'0 0.0
2018-Jun-01 19:00N 33°45' W 118°12'0 0.0
2018-Jun-01 18:30N 33°45' W 118°12'0 0.0
2018-Jun-01 18:00N 33°45' W 118°12'0 0.0
2018-Jun-01 17:30N 33°45' W 118°12'0 0.0
2018-Jun-01 17:00N 33°45' W 118°12'0 0.0
2018-Jun-01 16:30N 33°45' W 118°12'0 0.0
2018-Jun-01 16:00N 33°45' W 118°12'0 0.0
2018-Jun-01 15:30N 33°45' W 118°12'0 0.0
2018-Jun-01 15:00N 33°45' W 118°12'0 0.0
2018-Jun-01 14:30N 33°45' W 118°12'0 0.0
2018-Jun-01 14:00N 33°45' W 118°12'0 0.0
2018-Jun-01 13:30N 33°45' W 118°12'0 0.0
2018-Jun-01 12:57N 33°45' W 118°12'0 0.0
2018-Jun-01 12:30N 33°45' W 118°12'0 0.0
2018-Jun-01 12:00N 33°45' W 118°12'0 0.0
2018-Jun-01 11:30N 33°45' W 118°12'0 0.0
2018-Jun-01 11:00N 33°45' W 118°12'0 0.0
2018-Jun-01 10:30N 33°45' W 118°12'0 0.0
2018-Jun-01 10:00N 33°45' W 118°12'0 0.0
2018-Jun-01 09:30N 33°45' W 118°12'0 0.0
2018-Jun-01 09:00N 33°45' W 118°12'0 0.0
2018-Jun-01 08:30N 33°45' W 118°12'0 0.0
2018-Jun-01 08:00N 33°45' W 118°12'0 0.0
2018-Jun-01 07:30N 33°45' W 118°12'0 0.0
2018-Jun-01 07:00N 33°45' W 118°12'0 0.0
2018-Jun-01 06:30N 33°45' W 118°12'1 1.1
2018-Jun-01 06:00N 33°44' W 118°12'4 7.4
2018-Jun-01 05:29N 33°41' W 118°11'5 8.9
2018-Jun-01 04:58N 33°36' W 118°13'4 8.6
2018-Jun-01 04:30N 33°36' W 118°18'810.0
2018-Jun-01 03:42N 33°39' W 118°27'510.1
2018-Jun-01 03:10N 33°42' W 118°33'4 9.7
2018-Jun-01 02:47N 33°44' W 118°37'3 9.9
2018-Jun-01 02:26N 33°45' W 118°40'4 8.1
2018-Jun-01 02:00N 33°47' W 118°44'4 6.9
2018-Jun-01 01:24N 33°49' W 118°48'3 7.1
2018-Jun-01 00:57N 33°51' W 118°51'5 9.3
2018-Jun-01 00:27N 33°53' W 118°56'910.4
2018-May-31 23:35N 33°57' W 119°06'111.9
2018-May-31 23:30N 33°58' W 119°07'612.6
2018-May-31 23:00N 34°01' W 119°13'814.6
2018-May-31 22:28N 34°04' W 119°22'1115.1
2018-May-31 21:44N 34°07' W 119°35'415.0
2018-May-31 21:30N 34°08' W 119°39'  

Dump ship's entire track history